Torino / Bric Della Croce

LIMK · 皮埃蒙特, 意大利

罗盘
风向 的 风向 320°
风: 5 kt, 2 beaufort

添加一条跑道以查看侧风和逆风信息。

添置 跑道
0 ft 1.000 2.000 3.000 4.000 5.000
Cloud Cloud Cloud Cloud Cloud Cloud Cloud Cloud
OVC 3.000
METAR LIMF 270020Z 32005KT 8000 -RA OVC030 06/05 Q1006

METAR Torino / Bric Della Croce - LIMK

Torino / Bric Della Croce是,意大利中的未知。 该机场位于纬度45,03333和经度7,73333。 本场的ICAO机场代码为LIMK。 机场在Milano FIR中。

该航空气象观测是针对Turin Airport在2024年2月27日 01:20, 当地时间进行的。

机场观察

风向为320°,速度为5 kt。

可见度为8 km。

有乌云密布在3.000 ft的高度。 破损或更高的上限为3.000 ft。

当前天气为光 雨。 温度为6 °C,阵风为3 °C。 露点为5 °C,相对湿度为93%。 海平面上的气压为1006 hPa (QNH)。

白天

今天,太阳从07:11升起,在18:12降落。 这适用于Torino / Bric Della Croce,世界夏令时可能有所不同。 当地时间与世界标准时间之间的时差为+1 小时。 当前,没有夏令时有效。

公司介绍

我们没有关于这个机场的公司信息。

体会

到Vliegles.nl去找飞行课程,跳伞和其他飞行体验。 浏览页面,了解Torino / Bric Della Croce附近所有可用的活动。 你也可以使用搜索功能来寻找你所在地附近的特定飞行课程、跳伞或其他飞行体验。

乌云

3.000 ft OVC 乌云密布

温度 & 天气

天气 光 雨
温度 6 °C
露点 5 °C
相对湿度 93%
风寒 3 °C
Kp-index 2 (0-9)

白天

日出
07:11 (5:27)
中午
12:42
日落
18:12

小工具

你想在你的网站上有一个关于Torino / Bric Della Croce的当前航空天气(METAR)的小部件吗?

显示HTML代码
?>